sensor_id;sensor_type;location;lat;lon;timestamp;P1;durP1;ratioP1;P2;durP2;ratioP2
1759;SDS011;877;46.266;20.062;2023-02-12T00:02:16;42.42;;;20.63;;
1759;SDS011;877;46.266;20.062;2023-02-12T00:04:42;32.45;;;18.67;;
1759;SDS011;877;46.266;20.062;2023-02-12T00:07:08;38.88;;;19.70;;
1759;SDS011;877;46.266;20.062;2023-02-12T00:09:35;40.58;;;21.55;;
1759;SDS011;877;46.266;20.062;2023-02-12T00:12:02;38.13;;;19.75;;
1759;SDS011;877;46.266;20.062;2023-02-12T00:14:28;35.53;;;18.55;;
1759;SDS011;877;46.266;20.062;2023-02-12T00:16:54;36.85;;;18.73;;
1759;SDS011;877;46.266;20.062;2023-02-12T00:19:20;36.50;;;18.00;;
1759;SDS011;877;46.266;20.062;2023-02-12T00:21:47;31.70;;;18.38;;
1759;SDS011;877;46.266;20.062;2023-02-12T00:24:14;30.70;;;18.40;;
1759;SDS011;877;46.266;20.062;2023-02-12T00:26:40;40.35;;;19.17;;
1759;SDS011;877;46.266;20.062;2023-02-12T00:29:06;32.75;;;19.30;;
1759;SDS011;877;46.266;20.062;2023-02-12T00:31:33;35.97;;;20.17;;
1759;SDS011;877;46.266;20.062;2023-02-12T00:33:59;36.33;;;19.27;;
1759;SDS011;877;46.266;20.062;2023-02-12T00:36:26;30.02;;;18.45;;
1759;SDS011;877;46.266;20.062;2023-02-12T00:38:53;33.45;;;18.77;;
1759;SDS011;877;46.266;20.062;2023-02-12T00:41:21;30.90;;;17.48;;
1759;SDS011;877;46.266;20.062;2023-02-12T00:43:47;33.42;;;18.00;;
1759;SDS011;877;46.266;20.062;2023-02-12T00:46:14;31.73;;;18.33;;
1759;SDS011;877;46.266;20.062;2023-02-12T00:48:40;32.97;;;19.55;;
1759;SDS011;877;46.266;20.062;2023-02-12T00:51:07;32.22;;;17.20;;
1759;SDS011;877;46.266;20.062;2023-02-12T00:53:34;37.00;;;20.05;;
1759;SDS011;877;46.266;20.062;2023-02-12T00:56:01;32.08;;;16.63;;
1759;SDS011;877;46.266;20.062;2023-02-12T00:58:27;34.97;;;21.23;;
1759;SDS011;877;46.266;20.062;2023-02-12T01:00:54;32.78;;;19.15;;
1759;SDS011;877;46.266;20.062;2023-02-12T01:03:21;32.03;;;18.35;;
1759;SDS011;877;46.266;20.062;2023-02-12T01:05:47;34.72;;;19.75;;
1759;SDS011;877;46.266;20.062;2023-02-12T01:08:14;35.58;;;17.13;;
1759;SDS011;877;46.266;20.062;2023-02-12T01:10:41;29.10;;;18.55;;
1759;SDS011;877;46.266;20.062;2023-02-12T01:13:10;26.83;;;17.30;;
1759;SDS011;877;46.266;20.062;2023-02-12T01:15:38;35.22;;;18.73;;
1759;SDS011;877;46.266;20.062;2023-02-12T01:18:04;33.38;;;18.83;;
1759;SDS011;877;46.266;20.062;2023-02-12T01:20:30;32.90;;;18.33;;
1759;SDS011;877;46.266;20.062;2023-02-12T01:22:56;30.42;;;18.73;;
1759;SDS011;877;46.266;20.062;2023-02-12T01:25:22;34.95;;;19.67;;
1759;SDS011;877;46.266;20.062;2023-02-12T01:27:51;30.77;;;17.80;;
1759;SDS011;877;46.266;20.062;2023-02-12T01:30:18;37.97;;;19.45;;
1759;SDS011;877;46.266;20.062;2023-02-12T01:32:47;28.17;;;17.98;;
1759;SDS011;877;46.266;20.062;2023-02-12T01:35:14;36.75;;;19.55;;
1759;SDS011;877;46.266;20.062;2023-02-12T01:37:40;27.27;;;18.10;;
1759;SDS011;877;46.266;20.062;2023-02-12T01:40:08;32.42;;;19.10;;
1759;SDS011;877;46.266;20.062;2023-02-12T01:42:34;32.47;;;18.67;;
1759;SDS011;877;46.266;20.062;2023-02-12T01:47:41;32.25;;;18.33;;
1759;SDS011;877;46.266;20.062;2023-02-12T01:50:08;32.58;;;17.60;;
1759;SDS011;877;46.266;20.062;2023-02-12T01:52:37;30.80;;;18.00;;
1759;SDS011;877;46.266;20.062;2023-02-12T01:55:06;31.58;;;18.75;;
1759;SDS011;877;46.266;20.062;2023-02-12T01:57:33;32.42;;;18.17;;
1759;SDS011;877;46.266;20.062;2023-02-12T02:00:00;32.90;;;19.80;;
1759;SDS011;877;46.266;20.062;2023-02-12T02:02:29;36.55;;;18.48;;
1759;SDS011;877;46.266;20.062;2023-02-12T02:05:00;27.75;;;17.33;;
1759;SDS011;877;46.266;20.062;2023-02-12T02:07:27;33.00;;;18.98;;
1759;SDS011;877;46.266;20.062;2023-02-12T02:09:53;36.83;;;18.65;;
1759;SDS011;877;46.266;20.062;2023-02-12T02:12:20;34.17;;;19.17;;
1759;SDS011;877;46.266;20.062;2023-02-12T02:15:05;34.05;;;18.77;;
1759;SDS011;877;46.266;20.062;2023-02-12T02:33:21;29.38;;;16.63;;
1759;SDS011;877;46.266;20.062;2023-02-12T02:38:23;28.48;;;19.17;;
1759;SDS011;877;46.266;20.062;2023-02-12T02:41:24;27.60;;;15.35;;
1759;SDS011;877;46.266;20.062;2023-02-12T02:43:44;29.00;;;16.42;;
1759;SDS011;877;46.266;20.062;2023-02-12T02:46:35;31.33;;;19.35;;
1759;SDS011;877;46.266;20.062;2023-02-12T02:49:04;29.13;;;18.05;;
1759;SDS011;877;46.266;20.062;2023-02-12T02:51:32;30.65;;;17.85;;
1759;SDS011;877;46.266;20.062;2023-02-12T02:54:11;30.48;;;17.92;;
1759;SDS011;877;46.266;20.062;2023-02-12T02:56:38;36.10;;;19.70;;
1759;SDS011;877;46.266;20.062;2023-02-12T02:59:13;36.42;;;19.38;;
1759;SDS011;877;46.266;20.062;2023-02-12T03:01:43;31.50;;;18.13;;
1759;SDS011;877;46.266;20.062;2023-02-12T03:04:18;29.55;;;18.13;;
1759;SDS011;877;46.266;20.062;2023-02-12T03:07:00;32.95;;;17.45;;
1759;SDS011;877;46.266;20.062;2023-02-12T03:09:30;33.70;;;19.17;;
1759;SDS011;877;46.266;20.062;2023-02-12T03:12:00;32.25;;;17.83;;
1759;SDS011;877;46.266;20.062;2023-02-12T03:14:28;37.20;;;18.85;;
1759;SDS011;877;46.266;20.062;2023-02-12T03:17:01;35.00;;;16.77;;
1759;SDS011;877;46.266;20.062;2023-02-12T03:19:41;31.83;;;17.23;;
1759;SDS011;877;46.266;20.062;2023-02-12T03:22:08;33.17;;;17.35;;
1759;SDS011;877;46.266;20.062;2023-02-12T03:27:04;32.70;;;18.58;;
1759;SDS011;877;46.266;20.062;2023-02-12T03:29:32;35.47;;;19.90;;
1759;SDS011;877;46.266;20.062;2023-02-12T03:32:09;29.73;;;17.83;;
1759;SDS011;877;46.266;20.062;2023-02-12T03:34:42;30.95;;;16.92;;
1759;SDS011;877;46.266;20.062;2023-02-12T03:37:19;34.60;;;19.90;;
1759;SDS011;877;46.266;20.062;2023-02-12T03:50:09;34.90;;;18.98;;
1759;SDS011;877;46.266;20.062;2023-02-12T03:52:37;34.40;;;19.30;;
1759;SDS011;877;46.266;20.062;2023-02-12T03:55:04;30.65;;;18.42;;
1759;SDS011;877;46.266;20.062;2023-02-12T03:57:32;30.15;;;17.73;;
1759;SDS011;877;46.266;20.062;2023-02-12T04:00:04;31.58;;;17.95;;
1759;SDS011;877;46.266;20.062;2023-02-12T04:02:31;30.35;;;17.85;;
1759;SDS011;877;46.266;20.062;2023-02-12T04:05:02;31.88;;;18.17;;
1759;SDS011;877;46.266;20.062;2023-02-12T04:07:31;31.88;;;19.08;;
1759;SDS011;877;46.266;20.062;2023-02-12T04:09:58;30.85;;;16.95;;
1759;SDS011;877;46.266;20.062;2023-02-12T04:20:16;30.23;;;17.58;;
1759;SDS011;877;46.266;20.062;2023-02-12T04:30:20;34.75;;;19.83;;
1759;SDS011;877;46.266;20.062;2023-02-12T04:32:47;34.78;;;20.05;;
1759;SDS011;877;46.266;20.062;2023-02-12T04:37:45;39.53;;;19.05;;
1759;SDS011;877;46.266;20.062;2023-02-12T04:40:14;32.53;;;19.05;;
1759;SDS011;877;46.266;20.062;2023-02-12T04:42:44;33.55;;;18.70;;
1759;SDS011;877;46.266;20.062;2023-02-12T04:45:12;32.60;;;19.13;;
1759;SDS011;877;46.266;20.062;2023-02-12T04:47:38;29.75;;;17.27;;
1759;SDS011;877;46.266;20.062;2023-02-12T04:50:04;31.85;;;18.52;;
1759;SDS011;877;46.266;20.062;2023-02-12T04:52:32;30.63;;;17.55;;
1759;SDS011;877;46.266;20.062;2023-02-12T04:54:58;37.38;;;20.27;;
1759;SDS011;877;46.266;20.062;2023-02-12T04:57:24;30.00;;;17.45;;
1759;SDS011;877;46.266;20.062;2023-02-12T04:59:50;31.75;;;19.33;;
1759;SDS011;877;46.266;20.062;2023-02-12T05:02:17;35.03;;;19.63;;
1759;SDS011;877;46.266;20.062;2023-02-12T05:04:43;34.80;;;19.58;;
1759;SDS011;877;46.266;20.062;2023-02-12T05:07:09;33.03;;;18.52;;
1759;SDS011;877;46.266;20.062;2023-02-12T05:09:36;41.22;;;20.17;;
1759;SDS011;877;46.266;20.062;2023-02-12T05:12:02;34.50;;;17.90;;
1759;SDS011;877;46.266;20.062;2023-02-12T05:14:28;44.72;;;19.90;;
1759;SDS011;877;46.266;20.062;2023-02-12T05:16:54;28.40;;;18.38;;
1759;SDS011;877;46.266;20.062;2023-02-12T05:19:20;33.53;;;19.48;;
1759;SDS011;877;46.266;20.062;2023-02-12T05:21:48;28.85;;;18.88;;
1759;SDS011;877;46.266;20.062;2023-02-12T05:24:16;29.92;;;19.30;;
1759;SDS011;877;46.266;20.062;2023-02-12T05:26:43;34.72;;;20.35;;
1759;SDS011;877;46.266;20.062;2023-02-12T05:29:09;34.60;;;20.80;;
1759;SDS011;877;46.266;20.062;2023-02-12T05:31:35;29.83;;;19.00;;
1759;SDS011;877;46.266;20.062;2023-02-12T05:34:01;39.95;;;21.48;;
1759;SDS011;877;46.266;20.062;2023-02-12T05:36:27;35.25;;;21.05;;
1759;SDS011;877;46.266;20.062;2023-02-12T05:38:56;38.75;;;22.50;;
1759;SDS011;877;46.266;20.062;2023-02-12T05:41:23;45.00;;;23.20;;
1759;SDS011;877;46.266;20.062;2023-02-12T05:43:49;44.38;;;27.02;;
1759;SDS011;877;46.266;20.062;2023-02-12T05:46:16;43.00;;;24.27;;
1759;SDS011;877;46.266;20.062;2023-02-12T05:48:43;37.00;;;22.33;;
1759;SDS011;877;46.266;20.062;2023-02-12T05:51:10;33.88;;;19.80;;
1759;SDS011;877;46.266;20.062;2023-02-12T05:53:38;39.20;;;20.92;;
1759;SDS011;877;46.266;20.062;2023-02-12T05:58:34;41.60;;;23.40;;
1759;SDS011;877;46.266;20.062;2023-02-12T06:01:00;36.95;;;22.90;;
1759;SDS011;877;46.266;20.062;2023-02-12T06:03:26;39.95;;;21.27;;
1759;SDS011;877;46.266;20.062;2023-02-12T06:05:52;44.75;;;23.23;;
1759;SDS011;877;46.266;20.062;2023-02-12T06:08:18;43.20;;;24.73;;
1759;SDS011;877;46.266;20.062;2023-02-12T06:10:45;35.05;;;20.95;;
1759;SDS011;877;46.266;20.062;2023-02-12T06:13:11;39.20;;;23.08;;
1759;SDS011;877;46.266;20.062;2023-02-12T06:15:37;35.20;;;20.30;;
1759;SDS011;877;46.266;20.062;2023-02-12T06:18:03;38.17;;;21.73;;
1759;SDS011;877;46.266;20.062;2023-02-12T06:20:29;40.70;;;23.73;;
1759;SDS011;877;46.266;20.062;2023-02-12T06:22:55;39.28;;;22.88;;
1759;SDS011;877;46.266;20.062;2023-02-12T06:25:21;38.05;;;22.05;;
1759;SDS011;877;46.266;20.062;2023-02-12T06:27:47;44.42;;;25.00;;
1759;SDS011;877;46.266;20.062;2023-02-12T06:30:15;39.33;;;24.23;;
1759;SDS011;877;46.266;20.062;2023-02-12T06:32:41;51.20;;;28.80;;
1759;SDS011;877;46.266;20.062;2023-02-12T06:35:07;58.55;;;34.45;;
1759;SDS011;877;46.266;20.062;2023-02-12T06:37:33;46.85;;;29.20;;
1759;SDS011;877;46.266;20.062;2023-02-12T06:40:01;80.30;;;40.55;;
1759;SDS011;877;46.266;20.062;2023-02-12T06:42:27;127.50;;;66.53;;
1759;SDS011;877;46.266;20.062;2023-02-12T06:44:53;103.47;;;61.50;;
1759;SDS011;877;46.266;20.062;2023-02-12T06:47:19;69.47;;;41.15;;
1759;SDS011;877;46.266;20.062;2023-02-12T06:49:45;60.53;;;36.30;;
1759;SDS011;877;46.266;20.062;2023-02-12T06:52:11;110.28;;;50.35;;
1759;SDS011;877;46.266;20.062;2023-02-12T06:54:38;99.70;;;49.53;;
1759;SDS011;877;46.266;20.062;2023-02-12T06:57:05;94.45;;;46.42;;
1759;SDS011;877;46.266;20.062;2023-02-12T06:59:31;67.22;;;37.90;;
1759;SDS011;877;46.266;20.062;2023-02-12T07:01:57;54.08;;;32.05;;
1759;SDS011;877;46.266;20.062;2023-02-12T07:04:23;57.97;;;32.78;;
1759;SDS011;877;46.266;20.062;2023-02-12T07:06:50;44.80;;;25.58;;
1759;SDS011;877;46.266;20.062;2023-02-12T07:09:16;42.05;;;23.58;;
1759;SDS011;877;46.266;20.062;2023-02-12T07:11:42;43.50;;;24.85;;
1759;SDS011;877;46.266;20.062;2023-02-12T07:14:12;42.72;;;24.95;;
1759;SDS011;877;46.266;20.062;2023-02-12T07:16:38;45.58;;;24.08;;
1759;SDS011;877;46.266;20.062;2023-02-12T07:19:04;48.58;;;27.70;;
1759;SDS011;877;46.266;20.062;2023-02-12T07:21:30;38.92;;;23.92;;
1759;SDS011;877;46.266;20.062;2023-02-12T07:23:58;52.83;;;27.75;;
1759;SDS011;877;46.266;20.062;2023-02-12T07:26:24;52.50;;;30.15;;
1759;SDS011;877;46.266;20.062;2023-02-12T07:28:51;51.55;;;27.98;;
1759;SDS011;877;46.266;20.062;2023-02-12T07:31:18;43.35;;;25.00;;
1759;SDS011;877;46.266;20.062;2023-02-12T07:33:44;44.85;;;27.15;;
1759;SDS011;877;46.266;20.062;2023-02-12T07:36:12;45.15;;;27.88;;
1759;SDS011;877;46.266;20.062;2023-02-12T07:38:38;43.40;;;27.08;;
1759;SDS011;877;46.266;20.062;2023-02-12T07:43:33;38.85;;;23.30;;
1759;SDS011;877;46.266;20.062;2023-02-12T07:46:07;45.85;;;25.95;;
1759;SDS011;877;46.266;20.062;2023-02-12T07:48:33;41.65;;;24.38;;
1759;SDS011;877;46.266;20.062;2023-02-12T07:51:03;40.20;;;24.88;;
1759;SDS011;877;46.266;20.062;2023-02-12T07:53:30;44.95;;;25.40;;
1759;SDS011;877;46.266;20.062;2023-02-12T07:56:03;48.25;;;27.88;;
1759;SDS011;877;46.266;20.062;2023-02-12T07:58:29;48.10;;;27.13;;
1759;SDS011;877;46.266;20.062;2023-02-12T08:00:55;41.20;;;24.80;;
1759;SDS011;877;46.266;20.062;2023-02-12T08:03:21;42.63;;;25.08;;
1759;SDS011;877;46.266;20.062;2023-02-12T08:05:47;42.13;;;26.63;;
1759;SDS011;877;46.266;20.062;2023-02-12T08:08:13;52.20;;;28.98;;
1759;SDS011;877;46.266;20.062;2023-02-12T08:10:40;47.45;;;26.55;;
1759;SDS011;877;46.266;20.062;2023-02-12T08:13:06;53.85;;;30.10;;
1759;SDS011;877;46.266;20.062;2023-02-12T08:15:32;51.00;;;29.77;;
1759;SDS011;877;46.266;20.062;2023-02-12T08:17:59;65.65;;;36.20;;
1759;SDS011;877;46.266;20.062;2023-02-12T08:20:25;57.35;;;31.65;;
1759;SDS011;877;46.266;20.062;2023-02-12T08:22:51;56.15;;;33.33;;
1759;SDS011;877;46.266;20.062;2023-02-12T08:25:17;60.53;;;32.85;;
1759;SDS011;877;46.266;20.062;2023-02-12T08:27:44;45.13;;;27.08;;
1759;SDS011;877;46.266;20.062;2023-02-12T08:30:11;53.80;;;31.08;;
1759;SDS011;877;46.266;20.062;2023-02-12T08:32:37;46.55;;;29.23;;
1759;SDS011;877;46.266;20.062;2023-02-12T08:35:03;47.33;;;27.10;;
1759;SDS011;877;46.266;20.062;2023-02-12T08:37:29;53.72;;;32.03;;
1759;SDS011;877;46.266;20.062;2023-02-12T08:39:55;55.08;;;29.35;;
1759;SDS011;877;46.266;20.062;2023-02-12T08:42:21;51.58;;;29.83;;
1759;SDS011;877;46.266;20.062;2023-02-12T08:44:52;49.13;;;28.02;;
1759;SDS011;877;46.266;20.062;2023-02-12T08:47:18;56.08;;;30.88;;
1759;SDS011;877;46.266;20.062;2023-02-12T08:49:45;50.78;;;28.60;;
1759;SDS011;877;46.266;20.062;2023-02-12T08:52:11;50.72;;;30.08;;
1759;SDS011;877;46.266;20.062;2023-02-12T08:54:37;53.53;;;29.38;;
1759;SDS011;877;46.266;20.062;2023-02-12T08:57:03;52.65;;;29.48;;
1759;SDS011;877;46.266;20.062;2023-02-12T08:59:29;49.85;;;27.80;;
1759;SDS011;877;46.266;20.062;2023-02-12T09:01:55;48.58;;;25.95;;
1759;SDS011;877;46.266;20.062;2023-02-12T09:04:22;47.97;;;26.30;;
1759;SDS011;877;46.266;20.062;2023-02-12T09:06:49;54.78;;;30.98;;
1759;SDS011;877;46.266;20.062;2023-02-12T09:09:15;42.65;;;26.15;;
1759;SDS011;877;46.266;20.062;2023-02-12T09:11:42;51.50;;;28.35;;
1759;SDS011;877;46.266;20.062;2023-02-12T09:14:10;77.00;;;36.17;;
1759;SDS011;877;46.266;20.062;2023-02-12T09:16:36;71.68;;;33.30;;
1759;SDS011;877;46.266;20.062;2023-02-12T09:19:04;74.28;;;36.33;;
1759;SDS011;877;46.266;20.062;2023-02-12T09:21:30;64.13;;;31.58;;
1759;SDS011;877;46.266;20.062;2023-02-12T09:23:56;54.17;;;31.02;;
1759;SDS011;877;46.266;20.062;2023-02-12T09:26:23;59.80;;;32.10;;
1759;SDS011;877;46.266;20.062;2023-02-12T09:28:50;63.60;;;32.65;;
1759;SDS011;877;46.266;20.062;2023-02-12T09:31:17;57.15;;;31.50;;
1759;SDS011;877;46.266;20.062;2023-02-12T09:33:44;50.75;;;29.90;;
1759;SDS011;877;46.266;20.062;2023-02-12T09:36:13;56.22;;;30.67;;
1759;SDS011;877;46.266;20.062;2023-02-12T09:38:40;50.25;;;27.67;;
1759;SDS011;877;46.266;20.062;2023-02-12T09:43:59;53.55;;;28.75;;
1759;SDS011;877;46.266;20.062;2023-02-12T09:46:32;46.72;;;29.63;;
1759;SDS011;877;46.266;20.062;2023-02-12T09:51:33;50.15;;;28.80;;
1759;SDS011;877;46.266;20.062;2023-02-12T09:54:20;49.70;;;29.48;;
1759;SDS011;877;46.266;20.062;2023-02-12T09:56:50;48.78;;;29.50;;
1759;SDS011;877;46.266;20.062;2023-02-12T09:59:28;49.78;;;28.73;;
1759;SDS011;877;46.266;20.062;2023-02-12T10:01:56;52.40;;;29.27;;
1759;SDS011;877;46.266;20.062;2023-02-12T10:04:22;59.30;;;31.33;;
1759;SDS011;877;46.266;20.062;2023-02-12T10:15:06;49.83;;;31.08;;
1759;SDS011;877;46.266;20.062;2023-02-12T10:20:31;51.20;;;28.45;;
1759;SDS011;877;46.266;20.062;2023-02-12T10:25:53;54.05;;;31.63;;
1759;SDS011;877;46.266;20.062;2023-02-12T10:28:24;58.60;;;31.15;;
1759;SDS011;877;46.266;20.062;2023-02-12T10:35:50;48.92;;;30.95;;
1759;SDS011;877;46.266;20.062;2023-02-12T10:38:20;53.58;;;29.83;;
1759;SDS011;877;46.266;20.062;2023-02-12T10:40:47;51.95;;;30.95;;
1759;SDS011;877;46.266;20.062;2023-02-12T10:43:14;58.08;;;31.55;;
1759;SDS011;877;46.266;20.062;2023-02-12T10:45:41;47.95;;;30.95;;
1759;SDS011;877;46.266;20.062;2023-02-12T10:48:16;104.57;;;48.17;;
1759;SDS011;877;46.266;20.062;2023-02-12T10:51:05;51.90;;;31.13;;
1759;SDS011;877;46.266;20.062;2023-02-12T10:53:39;57.60;;;32.72;;
1759;SDS011;877;46.266;20.062;2023-02-12T10:58:34;120.97;;;57.30;;
1759;SDS011;877;46.266;20.062;2023-02-12T11:01:00;90.63;;;44.00;;
1759;SDS011;877;46.266;20.062;2023-02-12T11:03:28;87.07;;;44.80;;
1759;SDS011;877;46.266;20.062;2023-02-12T11:06:07;101.70;;;51.95;;
1759;SDS011;877;46.266;20.062;2023-02-12T11:08:35;113.25;;;51.35;;
1759;SDS011;877;46.266;20.062;2023-02-12T11:11:25;114.07;;;54.08;;
1759;SDS011;877;46.266;20.062;2023-02-12T11:14:37;73.55;;;37.88;;
1759;SDS011;877;46.266;20.062;2023-02-12T11:16:59;69.40;;;36.45;;
1759;SDS011;877;46.266;20.062;2023-02-12T11:19:28;55.15;;;32.50;;
1759;SDS011;877;46.266;20.062;2023-02-12T11:22:05;56.55;;;31.85;;
1759;SDS011;877;46.266;20.062;2023-02-12T11:24:33;54.03;;;32.67;;
1759;SDS011;877;46.266;20.062;2023-02-12T11:29:43;91.07;;;42.95;;
1759;SDS011;877;46.266;20.062;2023-02-12T11:32:17;115.75;;;49.75;;
1759;SDS011;877;46.266;20.062;2023-02-12T11:34:43;345.25;;;134.13;;
1759;SDS011;877;46.266;20.062;2023-02-12T11:37:13;128.88;;;54.10;;
1759;SDS011;877;46.266;20.062;2023-02-12T11:39:40;71.53;;;39.80;;
1759;SDS011;877;46.266;20.062;2023-02-12T11:42:17;88.53;;;38.20;;
1759;SDS011;877;46.266;20.062;2023-02-12T11:44:49;192.85;;;89.03;;
1759;SDS011;877;46.266;20.062;2023-02-12T11:47:16;43.22;;;26.67;;
1759;SDS011;877;46.266;20.062;2023-02-12T11:49:48;223.93;;;99.47;;
1759;SDS011;877;46.266;20.062;2023-02-12T11:52:21;165.23;;;75.13;;
1759;SDS011;877;46.266;20.062;2023-02-12T11:54:49;185.60;;;86.82;;
1759;SDS011;877;46.266;20.062;2023-02-12T12:00:02;104.70;;;52.58;;
1759;SDS011;877;46.266;20.062;2023-02-12T12:02:31;255.30;;;101.15;;
1759;SDS011;877;46.266;20.062;2023-02-12T12:05:11;125.15;;;59.17;;
1759;SDS011;877;46.266;20.062;2023-02-12T12:07:38;135.25;;;66.53;;
1759;SDS011;877;46.266;20.062;2023-02-12T12:10:40;90.95;;;49.65;;
1759;SDS011;877;46.266;20.062;2023-02-12T12:13:00;61.22;;;35.13;;
1759;SDS011;877;46.266;20.062;2023-02-12T12:21:07;59.72;;;35.60;;
1759;SDS011;877;46.266;20.062;2023-02-12T12:23:35;37.55;;;23.52;;
1759;SDS011;877;46.266;20.062;2023-02-12T12:26:06;47.72;;;27.23;;
1759;SDS011;877;46.266;20.062;2023-02-12T12:28:35;33.40;;;21.98;;
1759;SDS011;877;46.266;20.062;2023-02-12T12:43:59;19.55;;;11.57;;
1759;SDS011;877;46.266;20.062;2023-02-12T12:48:57;24.88;;;13.50;;
1759;SDS011;877;46.266;20.062;2023-02-12T12:54:24;22.75;;;12.50;;
1759;SDS011;877;46.266;20.062;2023-02-12T12:57:03;22.40;;;14.43;;
1759;SDS011;877;46.266;20.062;2023-02-12T13:04:53;20.70;;;13.23;;
1759;SDS011;877;46.266;20.062;2023-02-12T13:15:49;23.48;;;14.50;;
1759;SDS011;877;46.266;20.062;2023-02-12T13:18:39;26.13;;;14.63;;
1759;SDS011;877;46.266;20.062;2023-02-12T13:24:37;25.17;;;15.55;;
1759;SDS011;877;46.266;20.062;2023-02-12T13:29:14;28.08;;;17.75;;
1759;SDS011;877;46.266;20.062;2023-02-12T13:31:46;29.08;;;17.67;;
1759;SDS011;877;46.266;20.062;2023-02-12T13:34:14;34.40;;;19.95;;
1759;SDS011;877;46.266;20.062;2023-02-12T13:36:42;41.13;;;22.83;;
1759;SDS011;877;46.266;20.062;2023-02-12T13:41:38;32.33;;;19.25;;
1759;SDS011;877;46.266;20.062;2023-02-12T13:44:18;29.55;;;17.52;;
1759;SDS011;877;46.266;20.062;2023-02-12T13:51:53;33.13;;;20.17;;
1759;SDS011;877;46.266;20.062;2023-02-12T13:57:11;32.20;;;18.20;;
1759;SDS011;877;46.266;20.062;2023-02-12T13:59:39;28.20;;;18.70;;
1759;SDS011;877;46.266;20.062;2023-02-12T14:02:47;28.77;;;18.50;;
1759;SDS011;877;46.266;20.062;2023-02-12T14:04:55;28.97;;;18.83;;
1759;SDS011;877;46.266;20.062;2023-02-12T14:07:24;29.77;;;17.37;;
1759;SDS011;877;46.266;20.062;2023-02-12T14:10:05;29.27;;;17.10;;
1759;SDS011;877;46.266;20.062;2023-02-12T14:12:35;30.65;;;18.60;;
1759;SDS011;877;46.266;20.062;2023-02-12T14:15:07;36.30;;;18.70;;
1759;SDS011;877;46.266;20.062;2023-02-12T14:43:23;29.02;;;14.75;;
1759;SDS011;877;46.266;20.062;2023-02-12T14:45:50;20.57;;;14.70;;
1759;SDS011;877;46.266;20.062;2023-02-12T14:51:02;18.47;;;12.00;;
1759;SDS011;877;46.266;20.062;2023-02-12T14:53:30;22.70;;;13.40;;
1759;SDS011;877;46.266;20.062;2023-02-12T14:55:57;27.45;;;16.40;;
1759;SDS011;877;46.266;20.062;2023-02-12T14:58:24;28.63;;;15.05;;
1759;SDS011;877;46.266;20.062;2023-02-12T15:00:54;25.38;;;14.23;;
1759;SDS011;877;46.266;20.062;2023-02-12T15:03:22;22.50;;;12.37;;
1759;SDS011;877;46.266;20.062;2023-02-12T15:06:03;20.13;;;11.93;;
1759;SDS011;877;46.266;20.062;2023-02-12T15:11:23;26.40;;;15.67;;
1759;SDS011;877;46.266;20.062;2023-02-12T15:21:53;24.47;;;12.77;;
1759;SDS011;877;46.266;20.062;2023-02-12T15:24:21;22.67;;;13.03;;
1759;SDS011;877;46.266;20.062;2023-02-12T15:26:48;19.90;;;10.47;;
1759;SDS011;877;46.266;20.062;2023-02-12T15:29:23;14.93;;;9.40;;
1759;SDS011;877;46.266;20.062;2023-02-12T15:31:54;17.92;;;10.60;;
1759;SDS011;877;46.266;20.062;2023-02-12T15:34:21;19.85;;;12.85;;
1759;SDS011;877;46.266;20.062;2023-02-12T15:36:48;19.67;;;10.85;;
1759;SDS011;877;46.266;20.062;2023-02-12T15:39:19;25.00;;;14.48;;
1759;SDS011;877;46.266;20.062;2023-02-12T15:41:53;37.90;;;16.90;;
1759;SDS011;877;46.266;20.062;2023-02-12T15:44:21;37.78;;;17.73;;
1759;SDS011;877;46.266;20.062;2023-02-12T15:49:34;26.17;;;12.80;;
1759;SDS011;877;46.266;20.062;2023-02-12T15:52:08;38.88;;;14.98;;
1759;SDS011;877;46.266;20.062;2023-02-12T15:54:34;27.90;;;14.30;;
1759;SDS011;877;46.266;20.062;2023-02-12T15:57:01;32.70;;;16.00;;
1759;SDS011;877;46.266;20.062;2023-02-12T15:59:34;25.27;;;12.85;;
1759;SDS011;877;46.266;20.062;2023-02-12T16:02:01;21.38;;;11.25;;
1759;SDS011;877;46.266;20.062;2023-02-12T16:04:29;17.40;;;9.95;;
1759;SDS011;877;46.266;20.062;2023-02-12T16:06:56;19.33;;;10.15;;
1759;SDS011;877;46.266;20.062;2023-02-12T16:09:32;23.88;;;12.38;;
1759;SDS011;877;46.266;20.062;2023-02-12T16:12:01;23.15;;;11.00;;
1759;SDS011;877;46.266;20.062;2023-02-12T16:16:55;19.70;;;9.68;;
1759;SDS011;877;46.266;20.062;2023-02-12T16:19:23;21.33;;;13.70;;
1759;SDS011;877;46.266;20.062;2023-02-12T16:21:51;32.13;;;18.10;;
1759;SDS011;877;46.266;20.062;2023-02-12T16:24:26;33.00;;;19.95;;
1759;SDS011;877;46.266;20.062;2023-02-12T16:26:53;35.85;;;20.05;;
1759;SDS011;877;46.266;20.062;2023-02-12T16:29:20;32.65;;;16.83;;
1759;SDS011;877;46.266;20.062;2023-02-12T16:31:53;26.08;;;16.27;;
1759;SDS011;877;46.266;20.062;2023-02-12T16:34:34;32.70;;;18.80;;
1759;SDS011;877;46.266;20.062;2023-02-12T16:37:02;25.67;;;19.17;;
1759;SDS011;877;46.266;20.062;2023-02-12T16:42:16;31.70;;;20.15;;
1759;SDS011;877;46.266;20.062;2023-02-12T16:44:46;29.55;;;19.65;;
1759;SDS011;877;46.266;20.062;2023-02-12T16:47:18;33.13;;;21.13;;
1759;SDS011;877;46.266;20.062;2023-02-12T16:49:56;27.88;;;18.13;;
1759;SDS011;877;46.266;20.062;2023-02-12T16:52:41;28.55;;;17.17;;
1759;SDS011;877;46.266;20.062;2023-02-12T16:55:14;33.95;;;19.05;;
1759;SDS011;877;46.266;20.062;2023-02-12T16:57:40;37.50;;;21.83;;
1759;SDS011;877;46.266;20.062;2023-02-12T17:00:07;39.25;;;23.98;;
1759;SDS011;877;46.266;20.062;2023-02-12T17:02:34;41.85;;;25.05;;
1759;SDS011;877;46.266;20.062;2023-02-12T17:05:02;41.45;;;21.40;;
1759;SDS011;877;46.266;20.062;2023-02-12T17:07:31;35.33;;;19.95;;
1759;SDS011;877;46.266;20.062;2023-02-12T17:09:58;25.05;;;15.55;;
1759;SDS011;877;46.266;20.062;2023-02-12T17:12:24;30.80;;;16.63;;
1759;SDS011;877;46.266;20.062;2023-02-12T17:14:51;23.48;;;13.70;;
1759;SDS011;877;46.266;20.062;2023-02-12T17:17:18;21.90;;;13.63;;
1759;SDS011;877;46.266;20.062;2023-02-12T17:19:44;20.90;;;14.23;;
1759;SDS011;877;46.266;20.062;2023-02-12T17:22:20;19.58;;;12.32;;
1759;SDS011;877;46.266;20.062;2023-02-12T17:24:47;23.55;;;15.23;;
1759;SDS011;877;46.266;20.062;2023-02-12T17:27:16;25.15;;;15.57;;
1759;SDS011;877;46.266;20.062;2023-02-12T17:29:42;22.45;;;14.57;;
1759;SDS011;877;46.266;20.062;2023-02-12T17:32:09;22.73;;;15.32;;
1759;SDS011;877;46.266;20.062;2023-02-12T17:34:36;22.70;;;13.70;;
1759;SDS011;877;46.266;20.062;2023-02-12T17:37:02;24.33;;;14.00;;
1759;SDS011;877;46.266;20.062;2023-02-12T17:39:29;21.23;;;12.85;;
1759;SDS011;877;46.266;20.062;2023-02-12T17:41:55;22.38;;;14.45;;
1759;SDS011;877;46.266;20.062;2023-02-12T17:44:24;30.58;;;17.60;;
1759;SDS011;877;46.266;20.062;2023-02-12T17:46:50;23.70;;;14.65;;
1759;SDS011;877;46.266;20.062;2023-02-12T17:49:22;26.40;;;13.85;;
1759;SDS011;877;46.266;20.062;2023-02-12T17:51:49;21.30;;;12.88;;
1759;SDS011;877;46.266;20.062;2023-02-12T17:54:15;26.90;;;14.07;;
1759;SDS011;877;46.266;20.062;2023-02-12T17:56:42;27.98;;;14.93;;
1759;SDS011;877;46.266;20.062;2023-02-12T17:59:09;27.85;;;14.80;;
1759;SDS011;877;46.266;20.062;2023-02-12T18:01:35;29.95;;;16.73;;
1759;SDS011;877;46.266;20.062;2023-02-12T18:04:01;26.65;;;16.58;;
1759;SDS011;877;46.266;20.062;2023-02-12T18:06:28;28.02;;;17.00;;
1759;SDS011;877;46.266;20.062;2023-02-12T18:08:55;26.15;;;16.13;;